Rea, Missouri
Current Conditions -  °F | °C
As of 1:33 AM on Sunday 23 Nov 2014 (Local Time) from KSTJ Reporting Station
Overcast Overcast  
Wind Chill: 55°   Ceiling: 1400
Heat Index: 55°   Visibility: 10mi
Dew Point: 51°   Wind: 13mph
Humidity: 86%   Direction: 180°S
Pressure: 29.62"   Gusts: NA
Location:  40.06°N, 94.76°W
Report Text: KSTJ 230733Z AUTO 18011KT 10SM OVC014 13/11 A2962 RMK AO2 T01280106
Loading
Personal Weather Stations






























Interactive Weather Map New forecast layout! Learn more

10-Day Weather Forecast

Advertisements
Track Severe Weather on mobile